createdAt,value
2019-02-11T00:00:09.318Z,985.67
2019-02-11T00:01:16.377Z,985.59
2019-02-11T00:02:17.244Z,985.65
2019-02-11T00:03:17.037Z,985.69
2019-02-11T00:06:51.891Z,985.76
2019-02-11T00:07:53.385Z,985.79
2019-02-11T00:08:46.031Z,985.74
2019-02-11T00:09:53.209Z,985.78
2019-02-11T00:10:53.866Z,985.80
2019-02-11T00:11:53.041Z,985.82
2019-02-11T00:12:53.127Z,985.89
2019-02-11T00:13:52.967Z,985.90
2019-02-11T00:14:53.140Z,985.88
2019-02-11T00:15:53.039Z,985.95
2019-02-11T00:16:53.007Z,985.88
2019-02-11T00:17:53.090Z,985.97
2019-02-11T00:18:52.979Z,986.01
2019-02-11T00:19:54.066Z,986.05
2019-02-11T00:20:52.966Z,986.10
2019-02-11T00:21:53.926Z,986.09
2019-02-11T00:22:52.935Z,986.10
2019-02-11T00:23:52.962Z,986.11
2019-02-11T00:24:53.001Z,986.14
2019-02-11T00:25:54.099Z,986.16
2019-02-11T00:26:53.018Z,986.15
2019-02-11T00:27:53.047Z,986.19
2019-02-11T00:28:52.932Z,986.21
2019-02-11T00:29:52.908Z,986.21
2019-02-11T00:30:45.783Z,986.35
2019-02-11T00:32:55.668Z,986.30
2019-02-11T00:34:02.627Z,986.30
2019-02-11T00:35:02.759Z,986.32
2019-02-11T00:36:02.721Z,986.34
2019-02-11T00:37:02.566Z,986.34
2019-02-11T00:38:03.189Z,986.41
2019-02-11T00:39:02.497Z,986.36
2019-02-11T00:40:02.624Z,986.40
2019-02-11T00:41:02.589Z,986.43
2019-02-11T00:42:02.521Z,986.43
2019-02-11T00:43:02.507Z,986.48
2019-02-11T00:46:14.911Z,986.58
2019-02-11T00:47:14.588Z,986.62
2019-02-11T00:48:14.527Z,986.60
2019-02-11T00:49:14.457Z,986.65
2019-02-11T00:50:14.381Z,986.65
2019-02-11T00:51:14.346Z,986.69
2019-02-11T00:52:14.546Z,986.70
2019-02-11T00:53:14.329Z,986.64
2019-02-11T00:54:14.276Z,986.71
2019-02-11T00:55:14.271Z,986.77
2019-02-11T00:56:14.251Z,986.74
2019-02-11T00:57:14.239Z,986.73
2019-02-11T00:58:14.230Z,986.74
2019-02-11T00:59:14.219Z,986.78
2019-02-11T01:00:14.216Z,986.77
2019-02-11T01:01:14.191Z,986.76
2019-02-11T01:02:14.183Z,986.81
2019-02-11T01:03:14.166Z,986.77
2019-02-11T01:04:14.158Z,986.80
2019-02-11T01:05:14.164Z,986.86
2019-02-11T01:06:14.146Z,986.83
2019-02-11T01:07:14.124Z,986.85
2019-02-11T01:08:14.119Z,986.79
2019-02-11T01:09:14.109Z,986.96
2019-02-11T01:10:14.111Z,986.94
2019-02-11T01:11:15.072Z,986.96
2019-02-11T01:12:14.084Z,986.92
2019-02-11T01:13:14.055Z,987.01
2019-02-11T01:14:14.051Z,987.04
2019-02-11T01:15:14.055Z,986.98
2019-02-11T01:16:14.027Z,987.09
2019-02-11T01:17:14.023Z,987.05
2019-02-11T01:18:14.006Z,986.94
2019-02-11T01:19:13.991Z,987.10
2019-02-11T01:20:14.010Z,987.18
2019-02-11T01:21:13.972Z,987.13
2019-02-11T01:22:13.960Z,987.17
2019-02-11T01:23:13.975Z,987.17
2019-02-11T01:24:13.939Z,987.22
2019-02-11T01:25:13.941Z,987.22
2019-02-11T01:26:13.909Z,987.24
2019-02-11T01:27:13.900Z,987.22
2019-02-11T01:28:13.899Z,987.23
2019-02-11T01:29:13.896Z,987.25
2019-02-11T01:30:13.877Z,987.33
2019-02-11T01:31:13.853Z,987.31
2019-02-11T01:32:13.844Z,987.30
2019-02-11T01:33:13.830Z,987.43
2019-02-11T01:34:13.830Z,987.38
2019-02-11T01:35:13.835Z,987.43
2019-02-11T01:36:13.805Z,987.38
2019-02-11T01:37:13.787Z,987.45
2019-02-11T01:38:13.777Z,987.55
2019-02-11T01:39:13.772Z,987.56
2019-02-11T01:40:13.771Z,987.57
2019-02-11T01:41:13.742Z,987.62
2019-02-11T01:42:13.740Z,987.65
2019-02-11T01:43:13.724Z,987.69
2019-02-11T01:44:13.709Z,987.67
2019-02-11T01:45:13.715Z,987.64
2019-02-11T01:46:13.684Z,987.71
2019-02-11T01:47:13.681Z,987.66
2019-02-11T01:48:13.668Z,987.73
2019-02-11T01:49:13.655Z,987.75
2019-02-11T01:50:13.910Z,987.74
2019-02-11T01:51:13.641Z,987.81
2019-02-11T01:52:13.616Z,987.77
2019-02-11T01:53:13.609Z,987.81
2019-02-11T01:54:13.595Z,987.79
2019-02-11T01:55:13.585Z,987.88
2019-02-11T01:56:13.589Z,987.93
2019-02-11T01:57:13.564Z,988.02
2019-02-11T01:58:13.561Z,987.98
2019-02-11T01:59:13.538Z,987.98
2019-02-11T02:00:13.530Z,987.99
2019-02-11T02:01:13.526Z,988.00
2019-02-11T02:02:13.520Z,988.06
2019-02-11T02:03:13.501Z,988.02
2019-02-11T02:04:13.483Z,988.03
2019-02-11T02:05:13.474Z,988.07
2019-02-11T02:06:13.468Z,988.06
2019-02-11T02:07:13.511Z,988.02
2019-02-11T02:08:13.449Z,988.06
2019-02-11T02:09:13.449Z,988.10
2019-02-11T02:10:13.420Z,988.07
2019-02-11T02:11:13.416Z,988.04
2019-02-11T02:12:13.395Z,988.15
2019-02-11T02:13:13.388Z,988.17
2019-02-11T02:14:13.368Z,988.17
2019-02-11T02:15:13.359Z,988.18
2019-02-11T02:16:13.363Z,988.11
2019-02-11T02:17:13.333Z,988.20
2019-02-11T02:18:13.329Z,988.08
2019-02-11T02:19:13.310Z,988.19
2019-02-11T02:20:13.297Z,988.22
2019-02-11T02:21:13.305Z,988.27
2019-02-11T02:22:13.274Z,988.25
2019-02-11T02:23:13.270Z,988.37
2019-02-11T02:24:13.259Z,988.43
2019-02-11T02:25:13.237Z,988.36
2019-02-11T02:26:13.243Z,988.43
2019-02-11T02:27:13.219Z,988.44
2019-02-11T02:28:13.205Z,988.46
2019-02-11T02:29:14.074Z,988.60
2019-02-11T02:30:13.203Z,988.66
2019-02-11T02:31:13.191Z,988.52
2019-02-11T02:32:13.175Z,988.65
2019-02-11T02:33:13.147Z,988.64
2019-02-11T02:34:13.135Z,988.66
2019-02-11T02:35:13.146Z,988.65
2019-02-11T02:36:13.141Z,988.76
2019-02-11T02:37:13.111Z,988.77
2019-02-11T02:38:13.096Z,988.77
2019-02-11T02:39:13.077Z,988.85
2019-02-11T02:40:13.582Z,988.88
2019-02-11T02:41:13.077Z,988.91
2019-02-11T02:42:13.049Z,988.92
2019-02-11T02:43:13.043Z,988.94
2019-02-11T02:44:13.019Z,988.93
2019-02-11T02:45:13.017Z,989.03
2019-02-11T02:46:13.020Z,989.09
2019-02-11T02:47:12.998Z,989.13
2019-02-11T02:48:12.986Z,989.12
2019-02-11T02:49:12.974Z,989.19
2019-02-11T02:50:12.959Z,989.17
2019-02-11T02:51:12.958Z,989.19
2019-02-11T02:52:12.952Z,989.23
2019-02-11T02:53:12.920Z,989.21
2019-02-11T02:54:12.916Z,989.29
2019-02-11T02:55:12.901Z,989.36
2019-02-11T02:56:12.906Z,989.38
2019-02-11T02:57:12.881Z,989.45
2019-02-11T02:58:12.870Z,989.48
2019-02-11T02:59:12.866Z,989.47
2019-02-11T03:00:12.850Z,989.55
2019-02-11T03:01:12.848Z,989.59
2019-02-11T03:02:12.828Z,989.61
2019-02-11T03:03:12.817Z,989.49
2019-02-11T03:04:12.802Z,989.61
2019-02-11T03:05:12.812Z,989.68
2019-02-11T03:06:12.814Z,989.70
2019-02-11T03:07:12.786Z,989.77
2019-02-11T03:08:12.759Z,989.81
2019-02-11T03:09:12.760Z,989.79
2019-02-11T03:10:12.740Z,989.82
2019-02-11T03:11:12.738Z,989.90
2019-02-11T03:12:12.717Z,989.90
2019-02-11T03:13:12.700Z,989.88
2019-02-11T03:14:12.714Z,989.92
2019-02-11T03:15:12.696Z,989.93
2019-02-11T03:16:12.719Z,989.91
2019-02-11T03:17:12.657Z,990.05
2019-02-11T03:18:12.642Z,990.06
2019-02-11T03:19:12.638Z,990.05
2019-02-11T03:20:12.615Z,990.10
2019-02-11T03:21:12.634Z,990.11
2019-02-11T03:22:12.598Z,990.17
2019-02-11T03:23:12.593Z,990.21
2019-02-11T03:24:12.573Z,990.26
2019-02-11T03:25:12.570Z,990.23
2019-02-11T03:26:12.573Z,990.29
2019-02-11T03:27:12.545Z,990.38
2019-02-11T03:28:12.530Z,990.39
2019-02-11T03:29:12.520Z,990.40
2019-02-11T03:30:12.516Z,990.32
2019-02-11T03:31:12.568Z,990.41
2019-02-11T03:32:12.498Z,990.52
2019-02-11T03:33:12.476Z,990.50
2019-02-11T03:34:12.462Z,990.64
2019-02-11T03:35:12.459Z,990.64
2019-02-11T03:36:12.452Z,990.73
2019-02-11T03:37:12.430Z,990.70
2019-02-11T03:38:12.425Z,990.78
2019-02-11T03:39:19.681Z,990.88
2019-02-11T03:40:12.523Z,990.84
2019-02-11T03:41:12.443Z,990.79
2019-02-11T03:42:12.407Z,990.88
2019-02-11T03:43:12.617Z,990.93
2019-02-11T03:44:15.005Z,990.99
2019-02-11T03:45:12.339Z,990.98
2019-02-11T03:46:12.353Z,990.98
2019-02-11T03:47:12.319Z,991.05
2019-02-11T03:48:12.307Z,991.03
2019-02-11T03:49:12.297Z,991.10
2019-02-11T03:50:12.284Z,991.13
2019-02-11T03:51:12.309Z,991.17
2019-02-11T03:52:12.261Z,991.22
2019-02-11T03:53:12.265Z,991.19
2019-02-11T03:54:12.245Z,991.21
2019-02-11T03:55:12.250Z,991.26
2019-02-11T03:56:12.226Z,991.33
2019-02-11T03:57:12.221Z,991.33
2019-02-11T03:58:12.199Z,991.36
2019-02-11T03:59:12.187Z,991.39
2019-02-11T04:00:12.176Z,991.41
2019-02-11T04:01:12.162Z,991.44
2019-02-11T04:02:12.156Z,991.51
2019-02-11T04:03:12.149Z,991.54
2019-02-11T04:04:12.131Z,991.52
2019-02-11T04:05:12.135Z,991.57
2019-02-11T04:06:12.117Z,991.59
2019-02-11T04:07:12.123Z,991.65
2019-02-11T04:08:12.075Z,991.68
2019-02-11T04:09:12.070Z,991.76
2019-02-11T04:10:12.064Z,991.86
2019-02-11T04:11:12.047Z,991.81
2019-02-11T04:12:12.054Z,991.90
2019-02-11T04:13:12.020Z,991.88
2019-02-11T04:14:12.014Z,991.84
2019-02-11T04:15:12.619Z,991.83
2019-02-11T04:16:11.985Z,991.95
2019-02-11T04:17:11.988Z,991.93
2019-02-11T04:18:11.973Z,991.97
2019-02-11T04:19:11.953Z,991.99
2019-02-11T04:20:11.942Z,992.03
2019-02-11T04:21:11.939Z,992.06
2019-02-11T04:22:11.940Z,992.10
2019-02-11T04:23:11.910Z,992.04
2019-02-11T04:24:11.894Z,992.06
2019-02-11T04:25:11.887Z,992.22
2019-02-11T04:26:11.877Z,992.20
2019-02-11T04:27:11.880Z,992.12
2019-02-11T04:28:11.857Z,992.23
2019-02-11T04:29:11.842Z,992.23
2019-02-11T04:30:11.827Z,992.18
2019-02-11T04:31:11.816Z,992.33
2019-02-11T04:32:11.817Z,992.35
2019-02-11T04:33:11.793Z,992.33
2019-02-11T04:34:11.782Z,992.40
2019-02-11T04:35:11.770Z,992.43
2019-02-11T04:36:11.760Z,992.52
2019-02-11T04:37:11.757Z,992.42
2019-02-11T04:38:11.749Z,992.49
2019-02-11T04:39:11.730Z,992.46
2019-02-11T04:40:11.716Z,992.53
2019-02-11T04:41:11.707Z,992.53
2019-02-11T04:42:11.700Z,992.51
2019-02-11T04:43:11.685Z,992.56
2019-02-11T04:44:11.672Z,992.60
2019-02-11T04:45:11.670Z,992.67
2019-02-11T04:46:11.645Z,992.75
2019-02-11T04:47:11.647Z,992.67
2019-02-11T04:48:11.632Z,992.77
2019-02-11T04:49:11.626Z,992.69
2019-02-11T04:50:11.603Z,992.85
2019-02-11T04:51:11.591Z,992.84
2019-02-11T04:52:11.610Z,992.83
2019-02-11T04:53:11.578Z,992.77
2019-02-11T04:54:11.572Z,992.75
2019-02-11T04:55:11.547Z,992.88
2019-02-11T04:56:11.546Z,992.99
2019-02-11T04:57:11.548Z,993.02
2019-02-11T04:58:11.514Z,993.05
2019-02-11T04:59:11.498Z,993.04
2019-02-11T05:00:11.496Z,993.07
2019-02-11T05:01:11.480Z,993.18
2019-02-11T05:02:11.480Z,993.13
2019-02-11T05:03:11.453Z,993.22
2019-02-11T05:04:11.439Z,993.15
2019-02-11T05:05:11.436Z,993.28
2019-02-11T05:06:11.430Z,993.23
2019-02-11T05:07:11.420Z,993.30
2019-02-11T05:08:11.409Z,993.38
2019-02-11T05:09:11.387Z,993.40
2019-02-11T05:10:11.373Z,993.28
2019-02-11T05:11:11.371Z,993.42
2019-02-11T05:12:11.374Z,993.36
2019-02-11T05:13:11.347Z,993.34
2019-02-11T05:14:11.329Z,993.37
2019-02-11T05:15:11.321Z,993.38
2019-02-11T05:16:11.311Z,993.44
2019-02-11T05:17:11.321Z,993.43
2019-02-11T05:18:11.290Z,993.46
2019-02-11T05:19:11.291Z,993.38
2019-02-11T05:20:11.263Z,993.45
2019-02-11T05:21:11.266Z,993.51
2019-02-11T05:22:11.259Z,993.52
2019-02-11T05:23:11.242Z,993.53
2019-02-11T05:24:11.231Z,993.57
2019-02-11T05:25:11.213Z,993.54
2019-02-11T05:26:11.196Z,993.68
2019-02-11T05:27:11.198Z,993.63
2019-02-11T05:28:11.187Z,993.71
2019-02-11T05:29:11.162Z,993.70
2019-02-11T05:30:11.159Z,993.74
2019-02-11T05:31:11.178Z,993.72
2019-02-11T05:32:11.145Z,993.81
2019-02-11T05:33:11.155Z,993.79
2019-02-11T05:34:11.124Z,993.86
2019-02-11T05:35:11.153Z,993.87
2019-02-11T05:36:11.087Z,993.93
2019-02-11T05:37:11.082Z,993.96
2019-02-11T05:38:11.063Z,993.95
2019-02-11T05:39:11.062Z,993.90
2019-02-11T05:40:11.049Z,993.96
2019-02-11T05:41:11.037Z,993.94
2019-02-11T05:42:11.034Z,994.00
2019-02-11T05:43:11.009Z,994.05
2019-02-11T05:44:11.618Z,993.97
2019-02-11T05:45:10.996Z,994.09
2019-02-11T05:46:10.970Z,994.18
2019-02-11T05:47:10.975Z,994.19
2019-02-11T05:48:10.950Z,994.11
2019-02-11T05:49:10.955Z,994.23
2019-02-11T05:50:10.951Z,994.19
2019-02-11T05:51:10.917Z,994.24
2019-02-11T05:52:10.922Z,994.29
2019-02-11T05:53:10.899Z,994.31
2019-02-11T05:54:10.895Z,994.33
2019-02-11T05:55:10.873Z,994.28
2019-02-11T05:56:10.869Z,994.37
2019-02-11T05:57:10.884Z,994.37
2019-02-11T05:58:10.844Z,994.44
2019-02-11T05:59:10.822Z,994.36
2019-02-11T06:00:10.809Z,994.36
2019-02-11T06:01:10.806Z,994.39
2019-02-11T06:02:10.799Z,994.41
2019-02-11T06:03:10.798Z,994.40
2019-02-11T06:04:10.795Z,994.48
2019-02-11T06:05:10.755Z,994.58
2019-02-11T06:06:10.752Z,994.56
2019-02-11T06:07:10.740Z,994.62
2019-02-11T06:08:10.742Z,994.62
2019-02-11T06:09:10.716Z,994.63
2019-02-11T06:10:10.696Z,994.68
2019-02-11T06:11:10.688Z,994.67
2019-02-11T06:12:10.683Z,994.66
2019-02-11T06:13:10.688Z,994.75
2019-02-11T06:14:10.662Z,994.76
2019-02-11T06:15:10.648Z,994.75
2019-02-11T06:16:10.636Z,994.76
2019-02-11T06:17:10.625Z,994.80
2019-02-11T06:18:10.622Z,994.91
2019-02-11T06:19:10.599Z,994.87
2019-02-11T06:20:10.592Z,994.86
2019-02-11T06:21:10.576Z,994.89
2019-02-11T06:22:10.567Z,994.99
2019-02-11T06:23:10.563Z,994.88
2019-02-11T06:24:10.553Z,994.90
2019-02-11T06:25:10.553Z,994.99
2019-02-11T06:26:10.524Z,995.03
2019-02-11T06:27:10.507Z,995.10
2019-02-11T06:28:10.510Z,995.12
2019-02-11T06:29:10.490Z,995.11
2019-02-11T06:30:10.499Z,995.12
2019-02-11T06:31:10.471Z,995.16
2019-02-11T06:32:10.458Z,995.14
2019-02-11T06:33:10.452Z,995.25
2019-02-11T06:34:10.433Z,995.21
2019-02-11T06:35:10.425Z,995.30
2019-02-11T06:36:12.615Z,995.29
2019-02-11T06:37:10.398Z,995.31
2019-02-11T06:38:10.417Z,995.36
2019-02-11T06:39:10.377Z,995.31
2019-02-11T06:40:10.377Z,995.29
2019-02-11T06:41:10.373Z,995.31
2019-02-11T06:42:10.343Z,995.33
2019-02-11T06:43:10.339Z,995.39
2019-02-11T06:44:11.161Z,995.41
2019-02-11T06:45:17.671Z,995.43
2019-02-11T06:46:10.608Z,995.46
2019-02-11T06:47:10.359Z,995.50
2019-02-11T06:48:10.599Z,995.47
2019-02-11T06:49:10.621Z,995.57
2019-02-11T06:50:10.305Z,995.65
2019-02-11T06:51:10.277Z,995.64
2019-02-11T06:52:10.253Z,995.67
2019-02-11T06:53:10.547Z,995.67
2019-02-11T06:54:10.513Z,995.70
2019-02-11T06:55:10.193Z,995.78
2019-02-11T06:56:10.178Z,995.81
2019-02-11T06:57:10.171Z,995.86
2019-02-11T06:58:10.174Z,995.88
2019-02-11T06:59:10.152Z,995.88
2019-02-11T07:00:10.134Z,995.83
2019-02-11T07:01:10.120Z,995.89
2019-02-11T07:02:10.645Z,995.94
2019-02-11T07:03:10.120Z,995.93
2019-02-11T07:04:10.107Z,996.01
2019-02-11T07:05:10.089Z,996.01
2019-02-11T07:06:10.068Z,996.05
2019-02-11T07:07:10.057Z,996.02
2019-02-11T07:08:10.056Z,996.06
2019-02-11T07:09:10.032Z,996.08
2019-02-11T07:10:10.023Z,996.14
2019-02-11T07:11:10.027Z,996.25
2019-02-11T07:12:10.001Z,996.13
2019-02-11T07:13:10.012Z,996.14
2019-02-11T07:14:09.993Z,996.21
2019-02-11T07:15:09.972Z,996.15
2019-02-11T07:16:09.959Z,996.27
2019-02-11T07:17:09.954Z,996.31
2019-02-11T07:18:09.954Z,996.27
2019-02-11T07:19:09.936Z,996.29
2019-02-11T07:20:09.909Z,996.32
2019-02-11T07:21:09.933Z,996.26
2019-02-11T07:22:09.888Z,996.33
2019-02-11T07:23:09.893Z,996.47
2019-02-11T07:24:09.861Z,996.46
2019-02-11T07:25:09.858Z,996.41
2019-02-11T07:26:09.859Z,996.45
2019-02-11T07:27:09.833Z,996.45
2019-02-11T07:28:09.839Z,996.47
2019-02-11T07:29:09.816Z,996.57
2019-02-11T07:30:09.814Z,996.61
2019-02-11T07:31:11.122Z,996.48
2019-02-11T07:32:09.784Z,996.64
2019-02-11T07:33:09.773Z,996.52
2019-02-11T07:34:09.749Z,996.55
2019-02-11T07:35:09.746Z,996.77
2019-02-11T07:36:09.745Z,996.75
2019-02-11T07:37:09.726Z,996.79
2019-02-11T07:38:09.726Z,996.83
2019-02-11T07:39:09.720Z,996.86
2019-02-11T07:40:09.681Z,996.91
2019-02-11T07:41:10.679Z,996.92
2019-02-11T07:42:09.679Z,996.90
2019-02-11T07:43:09.698Z,996.95
2019-02-11T07:44:09.646Z,996.94
2019-02-11T07:45:09.639Z,996.96
2019-02-11T07:46:09.615Z,997.06
2019-02-11T07:47:09.691Z,997.10
2019-02-11T07:48:09.590Z,997.10
2019-02-11T07:49:09.600Z,997.10
2019-02-11T07:50:09.591Z,997.07
2019-02-11T07:51:09.558Z,997.17
2019-02-11T07:52:09.551Z,997.17
2019-02-11T07:53:09.553Z,997.17
2019-02-11T07:54:09.565Z,997.18
2019-02-11T07:55:09.514Z,997.22
2019-02-11T07:56:09.514Z,997.22
2019-02-11T07:57:09.489Z,997.17
2019-02-11T07:58:09.483Z,997.26
2019-02-11T07:59:09.489Z,997.29
2019-02-11T08:00:09.459Z,997.32
2019-02-11T08:01:09.464Z,997.31
2019-02-11T08:02:09.430Z,997.32
2019-02-11T08:03:09.430Z,997.36
2019-02-11T08:04:09.444Z,997.33
2019-02-11T08:05:09.402Z,997.34
2019-02-11T08:06:09.389Z,997.41
2019-02-11T08:07:09.373Z,997.36
2019-02-11T08:08:09.366Z,997.40
2019-02-11T08:09:09.377Z,997.36
2019-02-11T08:10:15.765Z,997.37
2019-02-11T08:11:09.438Z,997.40
2019-02-11T08:12:09.338Z,997.38
2019-02-11T08:13:09.309Z,997.43
2019-02-11T08:14:09.309Z,997.44
2019-02-11T08:15:09.290Z,997.43
2019-02-11T08:16:09.272Z,997.47
2019-02-11T08:17:09.285Z,997.46
2019-02-11T08:18:09.250Z,997.49
2019-02-11T08:19:10.237Z,997.44
2019-02-11T08:20:09.230Z,997.50
2019-02-11T08:21:09.215Z,997.40
2019-02-11T08:22:09.207Z,997.48
2019-02-11T08:23:13.170Z,997.51
2019-02-11T08:24:09.214Z,997.54
2019-02-11T08:25:09.170Z,997.56
2019-02-11T08:26:09.157Z,997.55
2019-02-11T08:27:09.148Z,997.57
2019-02-11T08:28:09.147Z,997.60
2019-02-11T08:29:09.141Z,997.57
2019-02-11T08:30:09.120Z,997.62
2019-02-11T08:31:09.668Z,997.70
2019-02-11T08:32:09.093Z,997.76
2019-02-11T08:33:09.077Z,997.67
2019-02-11T08:34:09.097Z,997.75
2019-02-11T08:35:09.052Z,997.78
2019-02-11T08:36:09.041Z,997.86
2019-02-11T08:37:09.036Z,997.86
2019-02-11T08:38:09.032Z,997.82
2019-02-11T08:39:09.082Z,997.91
2019-02-11T08:40:09.017Z,997.94
2019-02-11T08:41:08.989Z,998.00
2019-02-11T08:42:08.982Z,998.00
2019-02-11T08:43:08.963Z,998.03
2019-02-11T08:44:08.967Z,997.98
2019-02-11T08:45:08.950Z,998.06
2019-02-11T08:46:08.948Z,998.10
2019-02-11T08:47:08.926Z,998.18
2019-02-11T08:48:08.930Z,998.16
2019-02-11T08:49:08.914Z,998.14
2019-02-11T08:50:08.886Z,998.18
2019-02-11T08:51:08.882Z,998.15
2019-02-11T08:52:08.873Z,998.20
2019-02-11T08:53:08.860Z,998.21
2019-02-11T08:54:08.854Z,998.23
2019-02-11T08:55:08.823Z,998.28
2019-02-11T08:56:08.819Z,998.42
2019-02-11T08:57:08.805Z,998.31
2019-02-11T08:58:08.788Z,998.48
2019-02-11T08:59:08.792Z,998.38
2019-02-11T09:00:08.769Z,998.40
2019-02-11T09:01:08.754Z,998.49
2019-02-11T09:02:08.750Z,998.51
2019-02-11T09:03:08.736Z,998.59
2019-02-11T09:04:08.737Z,998.59
2019-02-11T09:05:08.714Z,998.54
2019-02-11T09:06:08.697Z,998.57
2019-02-11T09:07:08.711Z,998.61
2019-02-11T09:08:08.694Z,998.73
2019-02-11T09:09:08.704Z,998.64
2019-02-11T09:10:08.658Z,998.71
2019-02-11T09:11:10.323Z,998.77
2019-02-11T09:12:08.633Z,998.71
2019-02-11T09:13:08.633Z,998.80
2019-02-11T09:14:08.625Z,998.79
2019-02-11T09:15:09.176Z,998.84
2019-02-11T09:16:08.588Z,998.84
2019-02-11T09:17:10.400Z,998.86
2019-02-11T09:18:08.588Z,998.89
2019-02-11T09:19:08.586Z,998.95
2019-02-11T09:20:08.541Z,999.00
2019-02-11T09:21:08.529Z,998.93
2019-02-11T09:22:08.517Z,999.00
2019-02-11T09:23:08.506Z,999.04
2019-02-11T09:24:08.495Z,999.07
2019-02-11T09:25:08.496Z,999.07
2019-02-11T09:26:09.140Z,999.08
2019-02-11T09:27:08.460Z,999.14
2019-02-11T09:28:08.452Z,999.09
2019-02-11T09:29:08.450Z,999.17
2019-02-11T09:30:08.442Z,999.19
2019-02-11T09:31:08.415Z,999.26
2019-02-11T09:32:08.408Z,999.27
2019-02-11T09:33:08.387Z,999.32
2019-02-11T09:34:08.380Z,999.29
2019-02-11T09:35:08.382Z,999.34
2019-02-11T09:36:08.386Z,999.33
2019-02-11T09:37:08.404Z,999.36
2019-02-11T09:38:08.333Z,999.34
2019-02-11T09:39:08.320Z,999.41
2019-02-11T09:40:08.348Z,999.43
2019-02-11T09:41:08.300Z,999.38
2019-02-11T09:42:08.286Z,999.46
2019-02-11T09:43:08.280Z,999.44
2019-02-11T09:44:08.265Z,999.46
2019-02-11T09:45:08.267Z,999.49
2019-02-11T09:46:08.291Z,999.52
2019-02-11T09:47:08.260Z,999.59
2019-02-11T09:48:08.229Z,999.52
2019-02-11T09:49:08.212Z,999.57
2019-02-11T09:50:08.213Z,999.63
2019-02-11T09:51:08.191Z,999.61
2019-02-11T09:52:08.175Z,999.56
2019-02-11T09:53:08.204Z,999.68
2019-02-11T09:54:08.156Z,999.70
2019-02-11T09:55:08.164Z,999.68
2019-02-11T09:56:08.130Z,999.68
2019-02-11T09:57:08.127Z,999.70
2019-02-11T09:58:08.138Z,999.72
2019-02-11T09:59:08.094Z,999.74
2019-02-11T10:00:08.669Z,999.74
2019-02-11T10:01:08.127Z,999.74
2019-02-11T10:02:08.065Z,999.83
2019-02-11T10:03:08.067Z,999.84
2019-02-11T10:04:08.043Z,999.81
2019-02-11T10:05:08.259Z,999.82
2019-02-11T10:06:08.009Z,999.89
2019-02-11T10:07:08.010Z,999.89
2019-02-11T10:08:08.015Z,999.92
2019-02-11T10:09:07.999Z,999.99
2019-02-11T10:10:07.983Z,1000.00
2019-02-11T10:11:07.971Z,999.97
2019-02-11T10:12:07.947Z,1000.03
2019-02-11T10:13:07.954Z,999.92
2019-02-11T10:14:07.927Z,999.97
2019-02-11T10:15:07.944Z,1000.06
2019-02-11T10:16:12.495Z,1000.02
2019-02-11T10:17:07.927Z,1000.06
2019-02-11T10:18:07.920Z,1000.05
2019-02-11T10:19:07.889Z,1000.17
2019-02-11T10:20:07.897Z,1000.05
2019-02-11T10:21:07.846Z,1000.13
2019-02-11T10:22:07.842Z,1000.15
2019-02-11T10:23:07.824Z,1000.22
2019-02-11T10:24:07.809Z,1000.15
2019-02-11T10:25:07.815Z,1000.20
2019-02-11T10:26:08.688Z,1000.19
2019-02-11T10:27:07.781Z,1000.27
2019-02-11T10:28:07.790Z,1000.19
2019-02-11T10:29:07.749Z,1000.23
2019-02-11T10:30:07.755Z,1000.30
2019-02-11T10:31:07.777Z,1000.26
2019-02-11T10:32:07.717Z,1000.31
2019-02-11T10:33:07.710Z,1000.34
2019-02-11T10:34:07.702Z,1000.30
2019-02-11T10:35:07.704Z,1000.41
2019-02-11T10:36:07.680Z,1000.43
2019-02-11T10:37:07.671Z,1000.55
2019-02-11T10:38:07.654Z,1000.49
2019-02-11T10:39:07.659Z,1000.46
2019-02-11T10:40:07.655Z,1000.50
2019-02-11T10:41:07.623Z,1000.54
2019-02-11T10:42:07.615Z,1000.56
2019-02-11T10:43:07.627Z,1000.54
2019-02-11T10:44:07.586Z,1000.57
2019-02-11T10:45:07.608Z,1000.52
2019-02-11T10:46:07.571Z,1000.51
2019-02-11T10:47:07.575Z,1000.51
2019-02-11T10:48:07.537Z,1000.52
2019-02-11T10:49:07.554Z,1000.62
2019-02-11T10:50:07.533Z,1000.59
2019-02-11T10:51:07.516Z,1000.61
2019-02-11T10:52:07.499Z,1000.62
2019-02-11T10:53:07.506Z,1000.66
2019-02-11T10:54:07.471Z,1000.65
2019-02-11T10:55:07.474Z,1000.72
2019-02-11T10:56:07.479Z,1000.66
2019-02-11T10:57:07.435Z,1000.66
2019-02-11T10:58:07.429Z,1000.68
2019-02-11T10:59:07.415Z,1000.69
2019-02-11T11:00:17.644Z,1000.72
2019-02-11T11:01:07.397Z,1000.73
2019-02-11T11:02:07.377Z,1000.78
2019-02-11T11:03:07.372Z,1000.78
2019-02-11T11:04:07.373Z,1000.83
2019-02-11T11:05:07.360Z,1000.87
2019-02-11T11:06:07.368Z,1000.90
2019-02-11T11:07:07.321Z,1000.88
2019-02-11T11:08:07.309Z,1000.88
2019-02-11T11:09:07.308Z,1000.86
2019-02-11T11:10:07.444Z,1000.92
2019-02-11T11:11:07.285Z,1000.97
2019-02-11T11:12:08.144Z,1001.02
2019-02-11T11:13:07.255Z,1000.91
2019-02-11T11:14:07.246Z,1001.00
2019-02-11T11:15:07.273Z,1000.94
2019-02-11T11:16:07.224Z,1001.08
2019-02-11T11:17:07.231Z,1000.99
2019-02-11T11:18:07.263Z,1001.01
2019-02-11T11:19:07.187Z,1001.13
2019-02-11T11:20:07.301Z,1001.10
2019-02-11T11:21:07.165Z,1001.17
2019-02-11T11:22:07.167Z,1001.16
2019-02-11T11:23:07.144Z,1001.17
2019-02-11T11:24:07.138Z,1001.26
2019-02-11T11:25:07.183Z,1001.27
2019-02-11T11:26:07.120Z,1001.22
2019-02-11T11:27:07.136Z,1001.38
2019-02-11T11:28:07.081Z,1001.30
2019-02-11T11:29:07.083Z,1001.30
2019-02-11T11:30:07.061Z,1001.33
2019-02-11T11:31:07.110Z,1001.19
2019-02-11T11:32:07.048Z,1001.21
2019-02-11T11:33:07.041Z,1001.34
2019-02-11T11:34:07.030Z,1001.32
2019-02-11T11:35:07.013Z,1001.31
2019-02-11T11:36:07.008Z,1001.42
2019-02-11T11:37:06.995Z,1001.29
2019-02-11T11:38:06.977Z,1001.32
2019-02-11T11:39:06.965Z,1001.32
2019-02-11T11:40:06.952Z,1001.44
2019-02-11T11:41:06.954Z,1001.38
2019-02-11T11:42:06.928Z,1001.34
2019-02-11T11:43:06.923Z,1001.41
2019-02-11T11:44:06.905Z,1001.37
2019-02-11T11:45:06.901Z,1001.36
2019-02-11T11:46:06.906Z,1001.42
2019-02-11T11:47:06.868Z,1001.45
2019-02-11T11:48:06.873Z,1001.54
2019-02-11T11:49:06.868Z,1001.49
2019-02-11T11:50:06.842Z,1001.43
2019-02-11T11:51:06.895Z,1001.53
2019-02-11T11:52:07.686Z,1001.57
2019-02-11T11:53:07.685Z,1001.55
2019-02-11T11:54:06.794Z,1001.60
2019-02-11T11:55:06.780Z,1001.63
2019-02-11T11:56:06.785Z,1001.59
2019-02-11T11:57:06.782Z,1001.64
2019-02-11T11:58:06.881Z,1001.63
2019-02-11T11:59:06.791Z,1001.67
2019-02-11T12:00:07.738Z,1001.70
2019-02-11T12:01:06.756Z,1001.75
2019-02-11T12:02:06.707Z,1001.70
2019-02-11T12:03:06.788Z,1001.66
2019-02-11T12:04:06.986Z,1001.70
2019-02-11T12:05:08.193Z,1001.70
2019-02-11T12:06:06.681Z,1001.75
2019-02-11T12:07:06.647Z,1001.70
2019-02-11T12:08:06.641Z,1001.74
2019-02-11T12:09:06.622Z,1001.79
2019-02-11T12:10:06.613Z,1001.78
2019-02-11T12:11:06.624Z,1001.92
2019-02-11T12:12:06.588Z,1001.80
2019-02-11T12:13:21.464Z,1001.80
2019-02-11T12:14:07.566Z,1001.94
2019-02-11T12:15:07.156Z,1001.97
2019-02-11T12:16:06.553Z,1001.96
2019-02-11T12:17:07.218Z,1002.00
2019-02-11T12:18:06.525Z,1002.09
2019-02-11T12:19:06.520Z,1002.04
2019-02-11T12:20:06.498Z,1002.03
2019-02-11T12:21:06.501Z,1002.07
2019-02-11T12:22:06.480Z,1002.11
2019-02-11T12:23:06.685Z,1002.08
2019-02-11T12:24:06.489Z,1002.17
2019-02-11T12:25:06.436Z,1002.19
2019-02-11T12:26:06.770Z,1002.16
2019-02-11T12:27:06.525Z,1002.25
2019-02-11T12:28:06.413Z,1002.27
2019-02-11T12:29:06.502Z,1002.35
2019-02-11T12:31:22.427Z,1002.30